Portada
METAR-TAF:

METAR-TAF

Aeropuertos :

Niamey, Níger

Aeropuerto Internacional Diori Hamani

latitud: 13-29N, longitud: 002-10E, altitud: 223 m

Observación

El informe se hizo hace 1 hora y 8 minutos, a las 23:00 UTC
Viento 8 kt del este-noreste
Temperatura 23°C
Humedad 12%
Presión 1014 hPa
Visibilidad: 6000 m

METAR: DRRN 222300Z 06008KT 6000 NSC 23/M08 Q1014 NOSIG

Hora: 01:08 (00:08 UTC)

Pronóstico

El informe se hizo hace 1 hora y 8 minutos, a las 23:00 UTC
Pronóstico válido del 23 a las 00 UTC al 24 a las 06 UTC
Viento 8 kt del este-noreste
Visibilidad: 6000 m
Temporalmente
del 23 a las 06 UTC al 23 a las 08 UTC
Visibilidad: 3500 m
Polvo extendido
Temporalmente
del 23 a las 08 UTC al 23 a las 13 UTC
Viento 20 kt del este
Visibilidad: 2500 m
Ventisca alta de polvo

TAF: DRRN 222300Z 2300/2406 06008KT 6000 NSC TEMPO 2306/2308 3500 DU TEMPO 2308/2313 08020KT 2500 BLDU

Observaciones y pronósticos meteorológicos de más de 4000 aeropuertos (mensajes METAR y TAF).

Los puntos amarillos y rojos representan las estaciones disponibles.

Ponga el ratón en el punto deseado para ver el nombre de la estación.

Haga clic para ver las observaciones y los pronósticos meteorológicos.

Para cambiar el mapa : haga clic en los botones verdes con una cruz de color negro para hacer un zoom, en el botón verde con un guión para alejar o en las flechas verdes para mapas adyacentes.


METAR-TAF: